createdAt,value
2023-03-05T00:00:52.426Z,99248.75
2023-03-05T00:02:57.142Z,99252.79
2023-03-05T00:05:01.902Z,99251.23
2023-03-05T00:07:08.023Z,99254.95
2023-03-05T00:09:12.676Z,99252.55
2023-03-05T00:11:17.388Z,99250.92
2023-03-05T00:13:22.087Z,99249.22
2023-03-05T00:15:27.011Z,99248.80
2023-03-05T00:17:32.295Z,99243.48
2023-03-05T00:19:36.975Z,99241.41
2023-03-05T00:21:42.816Z,99246.81
2023-03-05T00:23:47.656Z,99245.91
2023-03-05T00:25:55.365Z,99243.71
2023-03-05T00:28:03.020Z,99233.14
2023-03-05T00:30:10.326Z,99231.55
2023-03-05T00:32:15.107Z,99225.46
2023-03-05T00:34:20.665Z,99227.83
2023-03-05T00:36:25.440Z,99225.83
2023-03-05T00:38:30.184Z,99221.28
2023-03-05T00:40:40.210Z,99219.60
2023-03-05T00:42:45.190Z,99219.10
2023-03-05T00:44:50.953Z,99213.18
2023-03-05T00:46:55.758Z,99216.96
2023-03-05T00:49:00.478Z,99213.53
2023-03-05T00:51:06.142Z,99205.56
2023-03-05T00:53:10.876Z,99204.29
2023-03-05T00:55:15.927Z,99208.98
2023-03-05T00:57:20.549Z,99204.55
2023-03-05T00:59:26.182Z,99197.87
2023-03-05T01:01:30.907Z,99200.40
2023-03-05T01:03:36.040Z,99195.70
2023-03-05T01:05:40.696Z,99195.77
2023-03-05T01:07:45.418Z,99197.19
2023-03-05T01:09:52.991Z,99198.35
2023-03-05T01:11:57.912Z,99194.36
2023-03-05T01:14:02.646Z,99190.38
2023-03-05T01:16:08.163Z,99190.38
2023-03-05T01:18:13.420Z,99183.23
2023-03-05T01:20:20.634Z,99186.32
2023-03-05T01:22:29.514Z,99184.81
2023-03-05T01:24:34.228Z,99184.33
2023-03-05T01:26:38.955Z,99185.27
2023-03-05T01:28:43.701Z,99186.77
2023-03-05T01:30:48.608Z,99186.14
2023-03-05T01:32:53.290Z,99187.33
2023-03-05T01:34:57.984Z,99178.10
2023-03-05T01:37:02.722Z,99175.67
2023-03-05T01:39:07.463Z,99176.48
2023-03-05T01:41:13.737Z,99177.11
2023-03-05T01:43:25.240Z,99172.15
2023-03-05T01:45:32.649Z,99176.30
2023-03-05T01:47:38.354Z,99175.58
2023-03-05T01:49:43.569Z,99173.94
2023-03-05T01:51:56.526Z,99177.33
2023-03-05T01:54:02.785Z,99169.21
2023-03-05T01:56:09.000Z,99164.45
2023-03-05T01:58:15.040Z,99167.81
2023-03-05T02:00:24.970Z,99169.23
2023-03-05T02:02:29.720Z,99165.88
2023-03-05T02:04:40.859Z,99162.35
2023-03-05T02:06:46.718Z,99160.86
2023-03-05T02:08:51.500Z,99162.39
2023-03-05T02:10:57.227Z,99158.89
2023-03-05T02:13:05.016Z,99159.77
2023-03-05T02:15:11.913Z,99153.63
2023-03-05T02:17:17.526Z,99159.27
2023-03-05T02:19:22.147Z,99167.59
2023-03-05T02:21:36.759Z,99150.00
2023-03-05T02:23:41.550Z,99158.39
2023-03-05T02:25:46.818Z,99154.73
2023-03-05T02:27:58.046Z,99154.15
2023-03-05T02:30:03.799Z,99158.02
2023-03-05T02:32:08.819Z,99159.00
2023-03-05T02:34:13.697Z,99157.86
2023-03-05T02:36:18.800Z,99153.95
2023-03-05T02:38:23.688Z,99148.86
2023-03-05T02:40:29.194Z,99145.05
2023-03-05T02:42:33.900Z,99142.15
2023-03-05T02:44:40.611Z,99136.29
2023-03-05T02:46:45.292Z,99139.84
2023-03-05T02:48:49.989Z,99136.81
2023-03-05T02:51:00.833Z,99136.39
2023-03-05T02:53:05.496Z,99132.48
2023-03-05T02:55:11.166Z,99135.36
2023-03-05T02:57:17.364Z,99129.38
2023-03-05T02:59:22.106Z,99126.95
2023-03-05T03:01:26.944Z,99125.45
2023-03-05T03:03:31.834Z,99124.98
2023-03-05T03:05:37.024Z,99122.72
2023-03-05T03:07:42.112Z,99126.94
2023-03-05T03:09:46.737Z,99126.45
2023-03-05T03:11:51.438Z,99124.09
2023-03-05T03:13:56.075Z,99124.14
2023-03-05T03:16:06.470Z,99119.05
2023-03-05T03:18:11.101Z,99121.42
2023-03-05T03:20:17.892Z,99116.23
2023-03-05T03:22:22.511Z,99114.80
2023-03-05T03:24:27.201Z,99112.11
2023-03-05T03:26:31.802Z,99113.39
2023-03-05T03:28:36.575Z,99108.45
2023-03-05T03:30:41.277Z,99105.67
2023-03-05T03:32:45.978Z,99104.15
2023-03-05T03:34:50.626Z,99104.66
2023-03-05T03:36:55.472Z,99108.13
2023-03-05T03:39:00.175Z,99102.19
2023-03-05T03:41:07.323Z,99105.56
2023-03-05T03:43:12.015Z,99108.84
2023-03-05T03:45:16.828Z,99103.37
2023-03-05T03:47:21.532Z,99112.60
2023-03-05T03:49:27.144Z,99107.16
2023-03-05T03:51:32.061Z,99110.45
2023-03-05T03:53:37.038Z,99108.80
2023-03-05T03:55:42.523Z,99109.52
2023-03-05T03:57:47.259Z,99108.90
2023-03-05T03:59:52.007Z,99109.45
2023-03-05T04:01:56.715Z,99106.47
2023-03-05T04:04:01.371Z,99104.33
2023-03-05T04:06:06.793Z,99101.75
2023-03-05T04:08:11.381Z,99104.66
2023-03-05T04:10:15.785Z,99098.62
2023-03-05T04:12:20.804Z,99104.15
2023-03-05T04:14:28.250Z,99099.35
2023-03-05T04:16:33.190Z,99103.23
2023-03-05T04:18:38.382Z,99097.08
2023-03-05T04:20:43.188Z,99095.73
2023-03-05T04:22:47.942Z,99094.17
2023-03-05T04:24:52.581Z,99097.90
2023-03-05T04:26:57.256Z,99091.77
2023-03-05T04:29:02.028Z,99086.83
2023-03-05T04:31:06.896Z,99091.52
2023-03-05T04:33:14.653Z,99088.48
2023-03-05T04:35:19.910Z,99086.23
2023-03-05T04:37:24.983Z,99086.52
2023-03-05T04:39:29.657Z,99084.64
2023-03-05T04:41:37.672Z,99083.14
2023-03-05T04:43:42.308Z,99079.38
2023-03-05T04:45:46.993Z,99078.53
2023-03-05T04:47:51.624Z,99077.40
2023-03-05T04:49:59.021Z,99075.05
2023-03-05T04:52:03.747Z,99074.02
2023-03-05T04:54:09.172Z,99074.61
2023-03-05T04:56:13.809Z,99073.26
2023-03-05T04:58:19.636Z,99076.10
2023-03-05T05:00:25.085Z,99074.38
2023-03-05T05:02:31.083Z,99074.86
2023-03-05T05:04:35.900Z,99067.52
2023-03-05T05:06:43.579Z,99070.43
2023-03-05T05:08:48.195Z,99071.15
2023-03-05T05:11:01.166Z,99073.28
2023-03-05T05:13:05.837Z,99070.73
2023-03-05T05:15:12.882Z,99068.95
2023-03-05T05:17:17.555Z,99073.52
2023-03-05T05:19:22.242Z,99073.68
2023-03-05T05:21:26.882Z,99071.65
2023-03-05T05:23:31.561Z,99062.79
2023-03-05T05:25:36.274Z,99064.89
2023-03-05T05:27:41.613Z,99066.58
2023-03-05T05:29:49.086Z,99061.96
2023-03-05T05:31:53.869Z,99062.20
2023-03-05T05:33:58.619Z,99072.70
2023-03-05T05:36:06.515Z,99068.77
2023-03-05T05:38:11.142Z,99070.56
2023-03-05T05:40:16.174Z,99067.30
2023-03-05T05:42:22.903Z,99064.89
2023-03-05T05:44:27.663Z,99068.09
2023-03-05T05:46:32.385Z,99067.60
2023-03-05T05:48:37.974Z,99068.64
2023-03-05T05:50:42.722Z,99067.05
2023-03-05T05:52:47.405Z,99058.98
2023-03-05T05:54:52.051Z,99063.00
2023-03-05T05:56:56.658Z,99061.95
2023-03-05T05:59:01.324Z,99063.52
2023-03-05T06:01:13.968Z,99057.75
2023-03-05T06:03:18.713Z,99059.64
2023-03-05T06:05:23.680Z,99058.84
2023-03-05T06:07:28.409Z,99062.30
2023-03-05T06:09:34.772Z,99063.19
2023-03-05T06:11:40.287Z,99069.81
2023-03-05T06:13:44.908Z,99063.78
2023-03-05T06:15:58.094Z,99067.10
2023-03-05T06:18:03.208Z,99068.91
2023-03-05T06:20:09.519Z,99070.77
2023-03-05T06:22:14.195Z,99070.36
2023-03-05T06:24:19.229Z,99070.75
2023-03-05T06:26:24.509Z,99069.87
2023-03-05T06:28:30.621Z,99070.17
2023-03-05T06:30:35.308Z,99069.07
2023-03-05T06:32:39.994Z,99072.63
2023-03-05T06:34:44.696Z,99072.55
2023-03-05T06:36:49.476Z,99065.02
2023-03-05T06:38:55.313Z,99077.84
2023-03-05T06:41:03.469Z,99076.55
2023-03-05T06:43:08.148Z,99068.84
2023-03-05T06:45:13.804Z,99067.72
2023-03-05T06:47:18.583Z,99070.73
2023-03-05T06:49:23.411Z,99064.15
2023-03-05T06:51:30.326Z,99060.98
2023-03-05T06:53:34.992Z,99059.42
2023-03-05T06:55:39.760Z,99054.80
2023-03-05T06:57:44.490Z,99060.80
2023-03-05T06:59:49.215Z,99066.79
2023-03-05T07:01:53.811Z,99063.14
2023-03-05T07:03:58.475Z,99068.58
2023-03-05T07:06:06.009Z,99070.23
2023-03-05T07:08:10.769Z,99065.88
2023-03-05T07:10:15.551Z,99074.97
2023-03-05T07:12:20.318Z,99070.23
2023-03-05T07:14:24.965Z,99073.35
2023-03-05T07:16:30.949Z,99069.83
2023-03-05T07:18:36.710Z,99069.27
2023-03-05T07:20:41.509Z,99065.94
2023-03-05T07:22:46.264Z,99063.52
2023-03-05T07:24:50.942Z,99064.48
2023-03-05T07:26:55.783Z,99061.90
2023-03-05T07:29:00.712Z,99061.17
2023-03-05T07:31:07.653Z,99059.06
2023-03-05T07:33:12.331Z,99058.69
2023-03-05T07:35:17.264Z,99058.40
2023-03-05T07:37:21.974Z,99058.34
2023-03-05T07:39:26.591Z,99057.98
2023-03-05T07:41:31.221Z,99049.58
2023-03-05T07:43:36.057Z,99046.13
2023-03-05T07:45:42.741Z,99050.71
2023-03-05T07:47:47.365Z,99046.77
2023-03-05T07:49:52.361Z,99049.23
2023-03-05T07:51:56.967Z,99046.41
2023-03-05T07:54:02.003Z,99052.80
2023-03-05T07:56:07.965Z,99054.08
2023-03-05T07:58:13.454Z,99046.25
2023-03-05T08:00:19.866Z,99049.20
2023-03-05T08:02:24.517Z,99049.91
2023-03-05T08:04:29.338Z,99050.14
2023-03-05T08:06:34.331Z,99048.95
2023-03-05T08:08:39.212Z,99047.83
2023-03-05T08:10:44.210Z,99038.59
2023-03-05T08:12:49.002Z,99041.05
2023-03-05T08:14:53.852Z,99046.48
2023-03-05T08:16:58.624Z,99038.89
2023-03-05T08:19:03.352Z,99036.76
2023-03-05T08:21:15.219Z,99031.45
2023-03-05T08:23:19.858Z,99039.37
2023-03-05T08:25:24.677Z,99035.11
2023-03-05T08:27:29.602Z,99037.25
2023-03-05T08:29:34.456Z,99040.09
2023-03-05T08:31:40.034Z,99041.82
2023-03-05T08:33:45.052Z,99035.69
2023-03-05T08:35:49.821Z,99037.55
2023-03-05T08:37:54.994Z,99035.73
2023-03-05T08:39:59.692Z,99037.55
2023-03-05T08:42:06.317Z,99027.08
2023-03-05T08:44:12.751Z,99032.60
2023-03-05T08:46:18.129Z,99034.10
2023-03-05T08:48:22.912Z,99036.58
2023-03-05T08:50:27.581Z,99036.89
2023-03-05T08:52:32.322Z,99038.12
2023-03-05T08:54:38.346Z,99031.83
2023-03-05T08:56:43.044Z,99030.61
2023-03-05T08:58:50.890Z,99030.00
2023-03-05T09:00:56.042Z,99032.14
2023-03-05T09:03:00.788Z,99024.41
2023-03-05T09:05:06.127Z,99021.05
2023-03-05T09:07:10.855Z,99020.05
2023-03-05T09:09:19.196Z,99022.83
2023-03-05T09:11:27.035Z,99020.17
2023-03-05T09:13:31.738Z,99022.09
2023-03-05T09:15:36.978Z,99019.07
2023-03-05T09:17:41.804Z,99018.10
2023-03-05T09:19:46.438Z,99020.72
2023-03-05T09:21:51.224Z,99024.89
2023-03-05T09:23:55.940Z,99017.13
2023-03-05T09:26:00.821Z,99015.27
2023-03-05T09:28:05.797Z,99016.39
2023-03-05T09:30:13.261Z,99017.48
2023-03-05T09:32:18.016Z,99017.53
2023-03-05T09:34:23.091Z,99013.83
2023-03-05T09:36:29.953Z,99017.43
2023-03-05T09:38:34.602Z,99016.69
2023-03-05T09:40:48.934Z,99011.21
2023-03-05T09:43:11.638Z,99011.80
2023-03-05T09:45:26.955Z,99012.66
2023-03-05T09:47:51.088Z,99012.57
2023-03-05T09:50:02.740Z,99022.94
2023-03-05T09:52:13.716Z,99014.90
2023-03-05T09:54:23.118Z,99017.99
2023-03-05T09:56:31.535Z,99013.70
2023-03-05T09:58:40.420Z,99009.69
2023-03-05T10:00:48.495Z,99003.26
2023-03-05T10:02:56.946Z,98992.63
2023-03-05T10:05:12.652Z,98989.54
2023-03-05T10:07:24.409Z,98990.34
2023-03-05T10:09:43.910Z,98992.53
2023-03-05T10:11:54.657Z,98995.11
2023-03-05T10:13:59.869Z,98990.09
2023-03-05T10:16:19.328Z,98995.10
2023-03-05T10:18:33.025Z,98986.67
2023-03-05T10:20:53.727Z,98988.39
2023-03-05T10:23:15.467Z,98980.90
2023-03-05T10:25:28.530Z,98988.05
2023-03-05T10:27:46.987Z,98980.10
2023-03-05T10:30:17.787Z,98976.29
2023-03-05T10:32:36.398Z,98965.91
2023-03-05T10:35:04.308Z,98971.85
2023-03-05T10:37:31.993Z,98962.83
2023-03-05T10:39:49.507Z,98961.00
2023-03-05T10:42:01.665Z,98964.74
2023-03-05T10:44:13.777Z,98970.80
2023-03-05T10:46:21.379Z,98959.88
2023-03-05T10:48:39.370Z,98958.34
2023-03-05T10:50:49.034Z,98963.61
2023-03-05T10:53:06.806Z,98953.09
2023-03-05T10:55:18.287Z,98952.13
2023-03-05T10:57:25.749Z,98949.61
2023-03-05T10:59:31.886Z,98943.42
2023-03-05T11:01:37.425Z,98952.69
2023-03-05T11:03:51.559Z,98948.10
2023-03-05T11:06:03.684Z,98942.20
2023-03-05T11:08:25.629Z,98937.10
2023-03-05T11:10:31.233Z,98936.65
2023-03-05T11:12:38.680Z,98934.41
2023-03-05T11:14:46.170Z,98934.92
2023-03-05T11:16:51.586Z,98928.46
2023-03-05T11:19:20.378Z,98931.31
2023-03-05T11:21:26.758Z,98928.78
2023-03-05T11:23:32.169Z,98916.77
2023-03-05T11:25:50.412Z,98911.63
2023-03-05T11:27:57.750Z,98920.11
2023-03-05T11:30:03.684Z,98909.95
2023-03-05T11:32:20.925Z,98900.85
2023-03-05T11:34:29.634Z,98904.58
2023-03-05T11:36:36.739Z,98905.16
2023-03-05T11:38:52.072Z,98905.44
2023-03-05T11:40:58.621Z,98896.06
2023-03-05T11:43:05.145Z,98892.21
2023-03-05T11:45:18.319Z,98891.73
2023-03-05T11:47:29.517Z,98885.17
2023-03-05T11:49:40.714Z,98879.16
2023-03-05T11:51:56.691Z,98881.56
2023-03-05T11:54:12.764Z,98883.96
2023-03-05T11:56:21.476Z,98893.90
2023-03-05T11:58:34.159Z,98884.60
2023-03-05T12:00:43.903Z,98878.05
2023-03-05T12:02:52.524Z,98882.64
2023-03-05T12:04:58.047Z,98887.05
2023-03-05T12:07:05.417Z,98880.96
2023-03-05T12:09:18.715Z,98879.27
2023-03-05T12:11:28.881Z,98881.39
2023-03-05T12:13:37.467Z,98897.70
2023-03-05T12:15:52.766Z,98889.53
2023-03-05T12:18:05.232Z,98879.14
2023-03-05T12:20:17.853Z,98884.55
2023-03-05T12:22:27.354Z,98875.25
2023-03-05T12:24:42.222Z,98877.21
2023-03-05T12:27:08.270Z,98872.07
2023-03-05T12:29:29.892Z,98876.37
2023-03-05T12:31:40.246Z,98867.34
2023-03-05T12:33:46.627Z,98866.86
2023-03-05T12:35:52.076Z,98861.86
2023-03-05T12:38:26.436Z,98857.60
2023-03-05T12:40:33.090Z,98852.36
2023-03-05T12:42:57.240Z,98845.89
2023-03-05T12:45:34.812Z,98841.45
2023-03-05T12:47:44.672Z,98851.34
2023-03-05T12:49:51.582Z,98849.98
2023-03-05T12:51:58.214Z,98847.92
2023-03-05T12:54:27.166Z,98851.00
2023-03-05T12:56:37.795Z,98853.62
2023-03-05T12:58:46.969Z,98847.52
2023-03-05T13:01:00.360Z,98844.88
2023-03-05T13:03:15.009Z,98846.17
2023-03-05T13:05:25.923Z,98851.88
2023-03-05T13:07:34.418Z,98854.15
2023-03-05T13:09:40.826Z,98850.18
2023-03-05T13:11:52.772Z,98851.69
2023-03-05T13:13:59.850Z,98847.50
2023-03-05T13:16:05.921Z,98852.69
2023-03-05T13:18:23.485Z,98853.84
2023-03-05T13:20:34.133Z,98843.45
2023-03-05T13:22:40.844Z,98851.21
2023-03-05T13:24:47.349Z,98850.80
2023-03-05T13:26:53.532Z,98860.16
2023-03-05T13:29:15.859Z,98854.91
2023-03-05T13:31:25.769Z,98858.08
2023-03-05T13:33:40.085Z,98858.27
2023-03-05T13:35:48.136Z,98851.02
2023-03-05T13:37:53.854Z,98854.80
2023-03-05T13:40:01.934Z,98852.09
2023-03-05T13:42:16.743Z,98846.38
2023-03-05T13:44:25.742Z,98844.45
2023-03-05T13:46:33.617Z,98847.71
2023-03-05T13:48:39.773Z,98846.40
2023-03-05T13:50:45.635Z,98837.58
2023-03-05T13:52:51.634Z,98839.68
2023-03-05T13:54:58.574Z,98835.79
2023-03-05T13:57:06.852Z,98832.34
2023-03-05T13:59:21.236Z,98834.67
2023-03-05T14:01:35.195Z,98829.30
2023-03-05T14:03:43.261Z,98826.12
2023-03-05T14:05:50.327Z,98828.96
2023-03-05T14:07:56.896Z,98825.45
2023-03-05T14:10:02.790Z,98825.28
2023-03-05T14:12:23.953Z,98819.10
2023-03-05T14:14:34.704Z,98818.92
2023-03-05T14:16:41.875Z,98811.89
2023-03-05T14:18:58.237Z,98815.73
2023-03-05T14:21:07.830Z,98815.00
2023-03-05T14:23:34.732Z,98807.46
2023-03-05T14:25:41.881Z,98804.36
2023-03-05T14:27:50.966Z,98802.02
2023-03-05T14:29:58.807Z,98803.19
2023-03-05T14:32:07.208Z,98806.81
2023-03-05T14:34:23.579Z,98803.67
2023-03-05T14:36:30.986Z,98807.34
2023-03-05T14:38:40.354Z,98802.34
2023-03-05T14:40:46.601Z,98796.52
2023-03-05T14:42:57.273Z,98795.39
2023-03-05T14:45:11.372Z,98794.44
2023-03-05T14:47:21.397Z,98790.43
2023-03-05T14:49:33.084Z,98790.95
2023-03-05T14:51:41.438Z,98787.77
2023-03-05T14:53:49.315Z,98786.52
2023-03-05T14:55:56.567Z,98781.70
2023-03-05T14:58:07.678Z,98781.14
2023-03-05T15:00:23.113Z,98776.20
2023-03-05T15:02:30.728Z,98779.08
2023-03-05T15:04:37.372Z,98774.46
2023-03-05T15:06:45.433Z,98769.85
2023-03-05T15:08:51.677Z,98766.71
2023-03-05T15:10:59.038Z,98770.29
2023-03-05T15:13:08.390Z,98771.23
2023-03-05T15:15:19.951Z,98768.54
2023-03-05T15:17:33.557Z,98767.33
2023-03-05T15:19:40.170Z,98767.73
2023-03-05T15:21:50.168Z,98769.49
2023-03-05T15:23:57.145Z,98768.17
2023-03-05T15:26:04.992Z,98763.39
2023-03-05T15:28:11.242Z,98768.59
2023-03-05T15:30:23.552Z,98767.36
2023-03-05T15:32:30.241Z,98760.59
2023-03-05T15:34:36.446Z,98759.36
2023-03-05T15:36:42.712Z,98759.29
2023-03-05T15:38:49.469Z,98759.86
2023-03-05T15:40:58.510Z,98757.84
2023-03-05T15:43:05.424Z,98750.36
2023-03-05T15:45:12.772Z,98748.08
2023-03-05T15:47:22.317Z,98745.58
2023-03-05T15:49:29.684Z,98744.98
2023-03-05T15:51:35.172Z,98749.23
2023-03-05T15:53:52.093Z,98751.42
2023-03-05T15:55:58.578Z,98750.86
2023-03-05T16:00:17.586Z,98756.45
2023-03-05T16:02:24.467Z,98753.79
2023-03-05T16:04:31.410Z,98755.27
2023-03-05T16:06:39.634Z,98754.64
2023-03-05T16:08:47.788Z,98759.84
2023-03-05T16:10:55.585Z,98754.73
2023-03-05T16:13:08.503Z,98750.03
2023-03-05T16:15:21.641Z,98749.23
2023-03-05T16:17:28.513Z,98749.79
2023-03-05T16:19:41.063Z,98748.73
2023-03-05T16:21:48.731Z,98750.10
2023-03-05T16:23:57.451Z,98744.73
2023-03-05T16:26:05.590Z,98747.08
2023-03-05T16:28:12.231Z,98747.15
2023-03-05T16:30:19.828Z,98749.98
2023-03-05T16:32:26.800Z,98751.14
2023-03-05T16:34:35.356Z,98753.39
2023-03-05T16:36:47.854Z,98750.42
2023-03-05T16:38:56.419Z,98749.49
2023-03-05T16:41:08.821Z,98742.26
2023-03-05T16:43:15.956Z,98745.30
2023-03-05T16:45:23.486Z,98733.70
2023-03-05T16:47:30.054Z,98725.70
2023-03-05T16:49:35.110Z,98735.88
2023-03-05T16:51:42.306Z,98738.70
2023-03-05T16:53:48.412Z,98740.45
2023-03-05T16:55:59.036Z,98742.03
2023-03-05T16:58:05.852Z,98741.73
2023-03-05T17:00:15.774Z,98742.80
2023-03-05T17:02:24.360Z,98745.27
2023-03-05T17:04:31.449Z,98742.16
2023-03-05T17:06:39.119Z,98739.21
2023-03-05T17:08:46.851Z,98743.61
2023-03-05T17:10:53.612Z,98746.55
2023-03-05T17:13:00.648Z,98750.02
2023-03-05T17:15:09.821Z,98751.80
2023-03-05T17:17:15.081Z,98753.27
2023-03-05T17:19:21.848Z,98757.65
2023-03-05T17:21:29.440Z,98760.50
2023-03-05T17:23:36.766Z,98759.16
2023-03-05T17:25:43.948Z,98767.50
2023-03-05T17:27:50.563Z,98761.79
2023-03-05T17:29:57.324Z,98762.63
2023-03-05T17:32:04.446Z,98761.59
2023-03-05T17:34:12.034Z,98758.98
2023-03-05T17:36:20.878Z,98758.56
2023-03-05T17:38:27.127Z,98759.38
2023-03-05T17:40:33.895Z,98755.86
2023-03-05T17:42:41.869Z,98752.59
2023-03-05T17:47:00.354Z,98759.14
2023-03-05T17:49:07.402Z,98754.11
2023-03-05T17:51:17.813Z,98756.49
2023-03-05T17:53:25.400Z,98758.38
2023-03-05T17:55:33.738Z,98756.35
2023-03-05T17:57:45.310Z,98752.35
2023-03-05T17:59:52.685Z,98752.06
2023-03-05T18:01:59.673Z,98759.14
2023-03-05T18:04:06.162Z,98758.64
2023-03-05T18:06:12.092Z,98755.41
2023-03-05T18:08:22.033Z,98756.44
2023-03-05T18:10:30.739Z,98755.08
2023-03-05T18:12:38.339Z,98757.98
2023-03-05T18:14:45.649Z,98755.52
2023-03-05T18:16:55.742Z,98755.69
2023-03-05T18:19:02.684Z,98753.88
2023-03-05T18:21:09.789Z,98758.78
2023-03-05T18:23:15.551Z,98762.92
2023-03-05T18:25:25.465Z,98754.59
2023-03-05T18:27:35.550Z,98756.13
2023-03-05T18:29:44.137Z,98754.46
2023-03-05T18:31:51.677Z,98756.58
2023-03-05T18:33:57.930Z,98760.67
2023-03-05T18:36:06.288Z,98760.27
2023-03-05T18:38:13.032Z,98759.58
2023-03-05T18:40:21.798Z,98750.27
2023-03-05T18:42:27.278Z,98753.21
2023-03-05T18:44:33.290Z,98754.02
2023-03-05T18:46:39.905Z,98754.52
2023-03-05T18:48:46.276Z,98751.04
2023-03-05T18:50:56.433Z,98750.05
2023-03-05T18:53:04.221Z,98752.55
2023-03-05T18:55:16.355Z,98749.67
2023-03-05T18:57:27.090Z,98739.02
2023-03-05T18:59:33.815Z,98734.29
2023-03-05T19:01:48.046Z,98732.95
2023-03-05T19:03:56.049Z,98732.75
2023-03-05T19:06:04.565Z,98724.67
2023-03-05T19:08:11.697Z,98738.98
2023-03-05T19:10:19.969Z,98747.95
2023-03-05T19:12:27.868Z,98747.48
2023-03-05T19:14:36.664Z,98746.14
2023-03-05T19:16:46.531Z,98749.69
2023-03-05T19:18:56.690Z,98745.70
2023-03-05T19:21:02.993Z,98749.67
2023-03-05T19:23:10.510Z,98749.17
2023-03-05T19:25:19.450Z,98750.34
2023-03-05T19:27:27.291Z,98738.27
2023-03-05T19:29:36.390Z,98746.80
2023-03-05T19:31:43.080Z,98737.58
2023-03-05T19:33:50.760Z,98740.20
2023-03-05T19:35:58.819Z,98745.67
2023-03-05T19:38:06.939Z,98751.48
2023-03-05T19:40:16.031Z,98737.16
2023-03-05T19:42:25.862Z,98732.38
2023-03-05T19:44:35.256Z,98731.89
2023-03-05T19:46:42.434Z,98730.90
2023-03-05T19:48:49.446Z,98726.38
2023-03-05T19:50:56.783Z,98726.88
2023-03-05T19:53:11.327Z,98728.04
2023-03-05T19:55:17.761Z,98729.90
2023-03-05T19:57:26.402Z,98726.84
2023-03-05T19:59:33.505Z,98727.69
2023-03-05T20:01:40.036Z,98730.84
2023-03-05T20:03:51.624Z,98732.11
2023-03-05T20:05:57.946Z,98731.17
2023-03-05T20:08:04.903Z,98733.00
2023-03-05T20:10:18.313Z,98732.02
2023-03-05T20:12:30.926Z,98735.27
2023-03-05T20:14:39.824Z,98735.20
2023-03-05T20:16:53.460Z,98732.04
2023-03-05T20:19:00.336Z,98727.52
2023-03-05T20:21:09.573Z,98723.38
2023-03-05T20:23:15.395Z,98720.52
2023-03-05T20:25:22.978Z,98722.70
2023-03-05T20:27:30.578Z,98721.67
2023-03-05T20:29:36.942Z,98721.54
2023-03-05T20:31:42.345Z,98721.30
2023-03-05T20:33:52.718Z,98720.55
2023-03-05T20:35:59.050Z,98718.90
2023-03-05T20:38:05.806Z,98718.73
2023-03-05T20:40:15.607Z,98715.52
2023-03-05T20:42:22.612Z,98715.09
2023-03-05T20:44:28.813Z,98713.27
2023-03-05T20:46:37.604Z,98713.86
2023-03-05T20:48:46.971Z,98711.10
2023-03-05T20:50:54.506Z,98710.94
2023-03-05T20:53:00.610Z,98712.13
2023-03-05T20:55:12.786Z,98709.15
2023-03-05T20:57:18.439Z,98712.38
2023-03-05T20:59:27.665Z,98710.70
2023-03-05T21:01:41.497Z,98710.77
2023-03-05T21:03:49.177Z,98712.67
2023-03-05T21:05:55.266Z,98711.82
2023-03-05T21:08:04.386Z,98709.89
2023-03-05T21:10:13.347Z,98705.54
2023-03-05T21:12:19.404Z,98701.65
2023-03-05T21:14:25.182Z,98702.30
2023-03-05T21:16:33.241Z,98702.55
2023-03-05T21:18:38.906Z,98695.35
2023-03-05T21:20:45.287Z,98690.48
2023-03-05T21:22:51.437Z,98689.84
2023-03-05T21:25:00.453Z,98689.63
2023-03-05T21:27:07.898Z,98688.77
2023-03-05T21:29:18.456Z,98684.58
2023-03-05T21:31:24.688Z,98686.23
2023-03-05T21:33:34.220Z,98684.16
2023-03-05T21:35:40.999Z,98682.29
2023-03-05T21:37:47.075Z,98680.70
2023-03-05T21:39:52.556Z,98679.82
2023-03-05T21:42:00.903Z,98679.23
2023-03-05T21:44:06.783Z,98684.95
2023-03-05T21:46:12.379Z,98677.33
2023-03-05T21:48:17.600Z,98675.09
2023-03-05T21:50:23.610Z,98673.48
2023-03-05T21:52:28.577Z,98675.20
2023-03-05T21:54:33.356Z,98670.96
2023-03-05T21:56:38.067Z,98666.65
2023-03-05T21:58:43.049Z,98666.86
2023-03-05T22:00:47.842Z,98664.02
2023-03-05T22:02:52.706Z,98659.48
2023-03-05T22:04:57.324Z,98660.17
2023-03-05T22:07:02.105Z,98655.94
2023-03-05T22:09:06.950Z,98657.81
2023-03-05T22:11:13.250Z,98653.93
2023-03-05T22:13:18.376Z,98656.00
2023-03-05T22:15:23.452Z,98653.81
2023-03-05T22:17:28.096Z,98656.52
2023-03-05T22:19:33.130Z,98654.81
2023-03-05T22:21:38.192Z,98654.49
2023-03-05T22:23:42.845Z,98651.58
2023-03-05T22:25:54.773Z,98649.27
2023-03-05T22:28:00.153Z,98650.86
2023-03-05T22:30:05.755Z,98648.77
2023-03-05T22:32:10.947Z,98652.13
2023-03-05T22:34:15.923Z,98651.52
2023-03-05T22:36:21.673Z,98647.11
2023-03-05T22:38:27.208Z,98646.41
2023-03-05T22:40:32.678Z,98639.56
2023-03-05T22:42:38.035Z,98640.70
2023-03-05T22:44:43.124Z,98635.02
2023-03-05T22:46:47.886Z,98629.84
2023-03-05T22:48:53.105Z,98628.50
2023-03-05T22:50:57.872Z,98627.89
2023-03-05T22:53:02.848Z,98625.59
2023-03-05T22:55:10.542Z,98626.74
2023-03-05T22:57:15.234Z,98624.45
2023-03-05T22:59:19.931Z,98628.76
2023-03-05T23:01:25.933Z,98623.77
2023-03-05T23:03:30.796Z,98622.73
2023-03-05T23:05:35.596Z,98622.29
2023-03-05T23:07:42.247Z,98622.77
2023-03-05T23:09:50.434Z,98623.23
2023-03-05T23:11:55.089Z,98623.54
2023-03-05T23:13:59.729Z,98620.72
2023-03-05T23:16:05.055Z,98619.71
2023-03-05T23:18:09.743Z,98617.23
2023-03-05T23:20:16.458Z,98621.66
2023-03-05T23:22:21.549Z,98624.14
2023-03-05T23:24:26.235Z,98624.00
2023-03-05T23:26:30.910Z,98625.23
2023-03-05T23:28:35.517Z,98619.52
2023-03-05T23:30:40.235Z,98619.17
2023-03-05T23:32:47.151Z,98616.13
2023-03-05T23:34:51.741Z,98614.54
2023-03-05T23:36:56.418Z,98617.45
2023-03-05T23:39:02.188Z,98617.42
2023-03-05T23:41:09.315Z,98618.34
2023-03-05T23:43:15.751Z,98616.84
2023-03-05T23:45:22.781Z,98616.68
2023-03-05T23:47:27.471Z,98614.55
2023-03-05T23:49:32.238Z,98609.80
2023-03-05T23:51:40.180Z,98615.31
2023-03-05T23:53:44.889Z,98612.08
2023-03-05T23:55:50.252Z,98610.42
2023-03-05T23:57:55.689Z,98613.93
